createdAt,value
2023-05-16T00:00:38.567Z,1.90
2023-05-16T00:03:08.505Z,3.93
2023-05-16T00:05:36.888Z,8.43
2023-05-16T00:08:04.998Z,9.53
2023-05-16T00:10:32.903Z,4.57
2023-05-16T00:13:02.158Z,6.33
2023-05-16T00:15:30.896Z,4.10
2023-05-16T00:17:59.737Z,4.77
2023-05-16T00:20:30.110Z,5.10
2023-05-16T00:23:01.174Z,7.87
2023-05-16T00:25:29.454Z,10.40
2023-05-16T00:27:57.289Z,3.63
2023-05-16T00:30:25.389Z,7.03
2023-05-16T00:32:53.468Z,6.73
2023-05-16T00:35:21.569Z,8.37
2023-05-16T00:37:51.367Z,8.03
2023-05-16T00:40:19.443Z,3.53
2023-05-16T00:42:47.305Z,3.80
2023-05-16T00:45:15.165Z,5.70
2023-05-16T00:47:43.021Z,6.00
2023-05-16T00:50:11.800Z,8.20
2023-05-16T00:52:39.677Z,4.20
2023-05-16T00:55:10.447Z,7.90
2023-05-16T00:57:38.429Z,4.20
2023-05-16T01:00:07.384Z,4.53
2023-05-16T01:02:36.454Z,5.57
2023-05-16T01:05:05.296Z,7.07
2023-05-16T01:07:33.215Z,5.77
2023-05-16T01:10:01.230Z,4.20
2023-05-16T01:12:32.905Z,7.60
2023-05-16T01:15:04.079Z,8.53
2023-05-16T01:17:35.734Z,1.90
2023-05-16T01:20:08.263Z,4.97
2023-05-16T01:22:42.485Z,5.53
2023-05-16T01:25:16.546Z,5.67
2023-05-16T01:27:45.860Z,3.13
2023-05-16T01:30:17.501Z,4.43
2023-05-16T01:32:45.475Z,6.50
2023-05-16T01:35:15.473Z,3.63
2023-05-16T01:37:46.923Z,6.90
2023-05-16T01:40:17.610Z,5.20
2023-05-16T01:42:47.035Z,5.00
2023-05-16T01:45:17.419Z,6.70
2023-05-16T01:47:46.353Z,5.47
2023-05-16T01:50:16.498Z,3.27
2023-05-16T01:52:46.430Z,3.93
2023-05-16T01:55:17.218Z,5.87
2023-05-16T01:57:46.517Z,6.23
2023-05-16T02:00:14.752Z,4.17
2023-05-16T02:02:42.670Z,4.97
2023-05-16T02:05:10.815Z,13.00
2023-05-16T02:07:38.677Z,4.37
2023-05-16T02:10:08.098Z,5.63
2023-05-16T02:12:36.028Z,9.17
2023-05-16T02:15:05.919Z,2.53
2023-05-16T02:17:33.882Z,4.50
2023-05-16T02:20:06.750Z,4.03
2023-05-16T02:22:34.681Z,7.13
2023-05-16T02:25:04.367Z,7.43
2023-05-16T02:27:32.287Z,4.73
2023-05-16T02:30:00.250Z,6.70
2023-05-16T02:32:29.549Z,4.77
2023-05-16T02:34:57.419Z,5.07
2023-05-16T02:37:25.263Z,5.07
2023-05-16T02:39:53.141Z,3.67
2023-05-16T02:42:21.032Z,5.03
2023-05-16T02:44:49.641Z,6.67
2023-05-16T02:47:17.551Z,8.90
2023-05-16T02:49:46.828Z,5.07
2023-05-16T02:52:14.678Z,4.00
2023-05-16T02:54:42.524Z,10.03
2023-05-16T02:57:10.411Z,7.90
2023-05-16T02:59:38.258Z,7.20
2023-05-16T03:02:06.315Z,8.27
2023-05-16T03:04:34.316Z,8.60
2023-05-16T03:07:03.706Z,6.37
2023-05-16T03:09:31.567Z,5.67
2023-05-16T03:11:59.590Z,4.97
2023-05-16T03:14:27.504Z,6.60
2023-05-16T03:16:55.376Z,5.43
2023-05-16T03:19:23.345Z,5.20
2023-05-16T03:21:51.263Z,4.80
2023-05-16T03:24:22.998Z,11.47
2023-05-16T03:26:51.142Z,4.30
2023-05-16T03:29:19.293Z,11.00
2023-05-16T03:31:47.297Z,3.37
2023-05-16T03:34:15.234Z,2.43
2023-05-16T03:36:43.335Z,2.50
2023-05-16T03:39:11.557Z,2.43
2023-05-16T03:41:40.825Z,3.97
2023-05-16T03:44:08.762Z,6.93
2023-05-16T03:46:36.682Z,2.60
2023-05-16T03:49:04.620Z,2.60
2023-05-16T03:51:33.228Z,3.77
2023-05-16T03:54:01.201Z,4.93
2023-05-16T03:56:29.114Z,2.27
2023-05-16T03:58:58.404Z,4.17
2023-05-16T04:01:26.298Z,1.70
2023-05-16T04:03:54.207Z,1.93
2023-05-16T04:06:22.418Z,6.10
2023-05-16T04:08:50.322Z,5.23
2023-05-16T04:11:18.210Z,5.53
2023-05-16T04:13:46.130Z,4.70
2023-05-16T04:16:15.514Z,8.20
2023-05-16T04:18:43.465Z,3.97
2023-05-16T04:21:15.120Z,6.00
2023-05-16T04:23:43.042Z,3.47
2023-05-16T04:26:10.878Z,3.93
2023-05-16T04:28:38.746Z,2.27
2023-05-16T04:31:06.756Z,2.80
2023-05-16T04:33:36.237Z,2.30
2023-05-16T04:36:05.981Z,6.70
2023-05-16T04:38:34.146Z,4.00
2023-05-16T04:41:02.644Z,4.90
2023-05-16T04:43:30.556Z,2.43
2023-05-16T04:45:59.139Z,7.30
2023-05-16T04:48:27.082Z,2.63
2023-05-16T04:51:01.030Z,5.10
2023-05-16T04:53:29.077Z,4.47
2023-05-16T04:55:56.927Z,4.13
2023-05-16T04:58:25.223Z,5.00
2023-05-16T05:00:53.206Z,8.40
2023-05-16T05:03:21.131Z,2.33
2023-05-16T05:05:49.063Z,3.03
2023-05-16T05:08:19.073Z,2.93
2023-05-16T05:10:46.940Z,3.23
2023-05-16T05:13:14.846Z,1.80
2023-05-16T05:15:44.565Z,2.57
2023-05-16T05:18:12.471Z,3.23
2023-05-16T05:20:42.273Z,8.30
2023-05-16T05:23:10.240Z,2.67
2023-05-16T05:25:39.945Z,3.97
2023-05-16T05:28:07.850Z,8.77
2023-05-16T05:30:35.907Z,2.90
2023-05-16T05:33:03.878Z,6.80
2023-05-16T05:35:31.787Z,3.10
2023-05-16T05:37:59.995Z,3.57
2023-05-16T05:40:27.961Z,5.53
2023-05-16T05:42:57.273Z,6.20
2023-05-16T05:45:25.417Z,11.80
2023-05-16T05:47:53.438Z,8.47
2023-05-16T05:50:21.551Z,6.50
2023-05-16T05:52:51.356Z,5.33
2023-05-16T05:55:22.606Z,7.57
2023-05-16T05:57:50.627Z,7.97
2023-05-16T06:00:20.504Z,9.83
2023-05-16T06:02:48.856Z,10.20
2023-05-16T06:05:16.858Z,10.93
2023-05-16T06:07:47.983Z,11.20
2023-05-16T06:10:16.042Z,8.67
2023-05-16T06:12:44.365Z,10.93
2023-05-16T06:15:12.822Z,9.67
2023-05-16T06:17:42.270Z,6.13
2023-05-16T06:20:10.639Z,7.17
2023-05-16T06:22:38.622Z,8.40
2023-05-16T06:25:07.276Z,6.70
2023-05-16T06:27:35.130Z,9.50
2023-05-16T06:30:03.033Z,6.53
2023-05-16T06:32:31.096Z,10.73
2023-05-16T06:35:00.464Z,18.60
2023-05-16T06:37:28.357Z,18.03
2023-05-16T06:39:56.467Z,13.40
2023-05-16T06:42:24.405Z,10.43
2023-05-16T06:44:52.539Z,13.53
2023-05-16T06:47:20.781Z,12.53
2023-05-16T06:49:49.109Z,18.07
2023-05-16T06:52:18.586Z,12.67
2023-05-16T06:54:46.588Z,10.73
2023-05-16T06:57:14.620Z,16.37
2023-05-16T06:59:42.940Z,17.80
2023-05-16T07:02:11.077Z,13.40
2023-05-16T07:04:39.510Z,11.33
2023-05-16T07:07:08.161Z,5.00
2023-05-16T07:09:37.490Z,8.17
2023-05-16T07:12:06.686Z,6.33
2023-05-16T07:14:34.738Z,9.50
2023-05-16T07:17:03.756Z,6.83
2023-05-16T07:19:31.909Z,4.90
2023-05-16T07:22:02.347Z,10.97
2023-05-16T07:24:30.568Z,10.07
2023-05-16T07:27:03.455Z,11.37
2023-05-16T07:29:31.748Z,6.10
2023-05-16T07:32:00.201Z,11.10
2023-05-16T07:34:29.127Z,8.97
2023-05-16T07:36:57.205Z,6.57
2023-05-16T07:39:25.284Z,9.97
2023-05-16T07:41:53.203Z,5.57
2023-05-16T07:44:22.586Z,7.03
2023-05-16T07:46:50.894Z,6.13
2023-05-16T07:51:47.679Z,6.33
2023-05-16T07:54:15.696Z,7.47
2023-05-16T07:56:43.622Z,8.27
2023-05-16T07:59:15.022Z,4.33
2023-05-16T08:01:44.359Z,4.50
2023-05-16T08:04:12.327Z,5.13
2023-05-16T08:06:40.244Z,3.73
2023-05-16T08:09:09.402Z,5.43
2023-05-16T08:11:37.432Z,11.13
2023-05-16T08:14:05.488Z,7.40
2023-05-16T08:16:34.090Z,6.83
2023-05-16T08:19:03.517Z,3.83
2023-05-16T08:21:31.933Z,6.20
2023-05-16T08:23:59.847Z,8.37
2023-05-16T08:26:27.994Z,3.67
2023-05-16T08:28:55.880Z,6.00
2023-05-16T08:31:23.916Z,7.90
2023-05-16T08:33:52.410Z,8.83
2023-05-16T08:36:22.091Z,4.93
2023-05-16T08:38:51.214Z,9.20
2023-05-16T08:41:19.308Z,14.43
2023-05-16T08:43:47.224Z,9.63
2023-05-16T08:46:15.340Z,4.17
2023-05-16T08:48:43.915Z,6.97
2023-05-16T08:51:12.248Z,7.83
2023-05-16T08:53:43.455Z,8.60
2023-05-16T08:56:13.996Z,9.50
2023-05-16T08:58:42.396Z,6.00
2023-05-16T09:01:10.697Z,5.30
2023-05-16T09:03:39.495Z,9.03
2023-05-16T09:06:08.425Z,7.17
2023-05-16T09:08:36.519Z,3.87
2023-05-16T09:11:06.164Z,3.10
2023-05-16T09:13:34.072Z,5.00
2023-05-16T09:16:12.521Z,4.43
2023-05-16T09:18:40.870Z,3.63
2023-05-16T09:21:10.900Z,5.20
2023-05-16T09:23:41.768Z,6.30
2023-05-16T09:26:11.394Z,4.93
2023-05-16T09:28:39.739Z,8.67
2023-05-16T09:31:21.169Z,3.07
2023-05-16T09:33:49.535Z,3.20
2023-05-16T09:36:17.692Z,4.40
2023-05-16T09:38:45.741Z,2.90
2023-05-16T09:41:15.196Z,4.87
2023-05-16T09:43:44.125Z,6.20
2023-05-16T09:46:14.097Z,5.10
2023-05-16T09:48:43.087Z,2.53
2023-05-16T09:51:11.081Z,3.90
2023-05-16T09:53:39.831Z,3.87
2023-05-16T09:56:08.976Z,3.83
2023-05-16T09:58:46.632Z,5.07
2023-05-16T10:01:14.633Z,6.00
2023-05-16T10:03:43.498Z,4.83
2023-05-16T10:06:11.682Z,4.40
2023-05-16T10:08:41.096Z,7.93
2023-05-16T10:11:09.245Z,5.70
2023-05-16T10:13:45.084Z,6.23
2023-05-16T10:16:13.496Z,5.23
2023-05-16T10:18:44.372Z,4.07
2023-05-16T10:21:16.107Z,4.37
2023-05-16T10:23:44.479Z,5.10
2023-05-16T10:26:14.883Z,2.27
2023-05-16T10:28:45.018Z,3.10
2023-05-16T10:31:14.857Z,1.57
2023-05-16T10:33:42.847Z,5.43
2023-05-16T10:36:11.025Z,2.37
2023-05-16T10:38:39.294Z,2.17
2023-05-16T10:41:07.694Z,2.57
2023-05-16T10:43:38.445Z,4.20
2023-05-16T10:46:09.754Z,6.47
2023-05-16T10:48:39.165Z,3.20
2023-05-16T10:51:44.936Z,4.33
2023-05-16T10:54:15.806Z,2.73
2023-05-16T10:56:44.406Z,7.70
2023-05-16T10:59:26.802Z,1.67
2023-05-16T11:01:58.646Z,1.33
2023-05-16T11:04:37.442Z,1.00
2023-05-16T11:07:05.657Z,4.80
2023-05-16T11:09:34.021Z,1.70
2023-05-16T11:12:03.674Z,5.67
2023-05-16T11:14:38.267Z,0.80
2023-05-16T11:17:10.937Z,2.80
2023-05-16T11:19:43.584Z,1.60
2023-05-16T11:22:23.129Z,6.10
2023-05-16T11:24:53.240Z,2.90
2023-05-16T11:27:26.176Z,3.47
2023-05-16T11:29:55.302Z,2.00
2023-05-16T11:32:25.057Z,1.70
2023-05-16T11:34:54.592Z,2.17
2023-05-16T11:37:23.027Z,1.20
2023-05-16T11:39:52.211Z,3.30
2023-05-16T11:42:20.454Z,1.55
2023-05-16T11:44:48.434Z,2.00
2023-05-16T11:47:16.499Z,1.90
2023-05-16T11:49:47.597Z,3.50
2023-05-16T11:52:18.386Z,4.47
2023-05-16T11:54:46.796Z,3.13
2023-05-16T11:57:15.229Z,3.75
2023-05-16T11:59:43.448Z,5.18
2023-05-16T12:02:11.705Z,2.33
2023-05-16T12:04:40.406Z,1.90
2023-05-16T12:07:10.091Z,3.72
2023-05-16T12:09:38.030Z,3.78
2023-05-16T12:12:06.919Z,3.53
2023-05-16T12:14:35.212Z,4.47
2023-05-16T12:17:04.908Z,1.75
2023-05-16T12:19:33.270Z,4.90
2023-05-16T12:22:01.820Z,2.65
2023-05-16T12:24:34.381Z,2.03
2023-05-16T12:27:08.858Z,2.30
2023-05-16T12:29:39.961Z,2.25
2023-05-16T12:32:09.550Z,1.65
2023-05-16T12:34:37.614Z,1.10
2023-05-16T12:37:06.304Z,4.75
2023-05-16T12:39:39.993Z,3.55
2023-05-16T12:42:09.634Z,2.58
2023-05-16T12:44:37.808Z,3.58
2023-05-16T12:47:05.890Z,3.08
2023-05-16T12:49:34.665Z,5.55
2023-05-16T12:52:05.961Z,6.10
2023-05-16T12:54:34.473Z,3.78
2023-05-16T12:57:04.443Z,3.08
2023-05-16T12:59:35.637Z,3.17
2023-05-16T13:02:05.349Z,2.30
2023-05-16T13:04:33.370Z,2.22
2023-05-16T13:07:01.349Z,4.95
2023-05-16T13:09:32.714Z,3.10
2023-05-16T13:12:01.540Z,3.63
2023-05-16T13:14:31.077Z,3.92
2023-05-16T13:16:58.986Z,3.55
2023-05-16T13:19:27.065Z,6.07
2023-05-16T13:21:56.391Z,3.47
2023-05-16T13:24:24.536Z,5.90
2023-05-16T13:26:52.803Z,6.38
2023-05-16T13:29:20.779Z,6.65
2023-05-16T13:31:50.442Z,5.90
2023-05-16T13:34:18.360Z,3.72
2023-05-16T13:36:53.638Z,8.10
2023-05-16T13:39:23.249Z,7.10
2023-05-16T13:41:51.700Z,7.57
2023-05-16T13:44:19.625Z,6.18
2023-05-16T13:46:54.008Z,4.57
2023-05-16T13:49:22.321Z,6.35
2023-05-16T13:51:52.179Z,5.05
2023-05-16T13:54:21.711Z,4.90
2023-05-16T13:56:49.707Z,4.47
2023-05-16T13:59:28.485Z,9.60
2023-05-16T14:02:08.025Z,7.22
2023-05-16T14:04:36.262Z,7.03
2023-05-16T14:07:04.624Z,4.53
2023-05-16T14:09:35.246Z,8.80
2023-05-16T14:12:04.522Z,5.85
2023-05-16T14:14:32.815Z,5.63
2023-05-16T14:17:01.595Z,5.65
2023-05-16T14:19:31.520Z,8.65
2023-05-16T14:21:59.962Z,4.85
2023-05-16T14:24:28.049Z,8.00
2023-05-16T14:26:56.228Z,8.93
2023-05-16T14:29:24.547Z,4.72
2023-05-16T14:31:52.848Z,6.05
2023-05-16T14:34:22.565Z,5.38
2023-05-16T14:36:53.168Z,8.50
2023-05-16T14:39:21.601Z,5.88
2023-05-16T14:41:49.729Z,4.13
2023-05-16T14:44:18.444Z,6.05
2023-05-16T14:46:48.101Z,8.38
2023-05-16T14:49:16.302Z,5.50
2023-05-16T14:51:49.225Z,8.80
2023-05-16T14:54:19.292Z,6.80
2023-05-16T14:56:47.799Z,4.97
2023-05-16T14:59:16.092Z,11.65
2023-05-16T15:01:44.199Z,6.57
2023-05-16T15:04:12.421Z,8.05
2023-05-16T15:06:40.777Z,5.93
2023-05-16T15:09:09.010Z,4.70
2023-05-16T15:11:38.647Z,3.35
2023-05-16T15:14:07.844Z,4.30
2023-05-16T15:16:36.166Z,5.15
2023-05-16T15:19:04.927Z,9.98
2023-05-16T15:21:33.403Z,4.15
2023-05-16T15:24:01.815Z,5.65
2023-05-16T15:26:29.777Z,6.03
2023-05-16T15:28:59.496Z,5.95
2023-05-16T15:31:27.735Z,3.40
2023-05-16T15:33:56.005Z,4.22
2023-05-16T15:36:24.090Z,3.90
2023-05-16T15:38:53.074Z,4.90
2023-05-16T15:41:43.598Z,4.45
2023-05-16T15:44:14.238Z,4.43
2023-05-16T15:46:42.710Z,2.85
2023-05-16T15:49:15.251Z,4.47
2023-05-16T15:51:43.581Z,7.03
2023-05-16T15:54:12.095Z,5.53
2023-05-16T15:56:40.432Z,4.40
2023-05-16T15:59:16.055Z,3.25
2023-05-16T16:01:45.870Z,7.85
2023-05-16T16:04:13.935Z,7.45
2023-05-16T16:06:41.891Z,3.35
2023-05-16T16:09:11.106Z,4.82
2023-05-16T16:11:39.677Z,6.50
2023-05-16T16:14:08.774Z,4.00
2023-05-16T16:16:38.593Z,2.97
2023-05-16T16:19:08.282Z,1.88
2023-05-16T16:21:37.333Z,9.70
2023-05-16T16:24:07.155Z,3.58
2023-05-16T16:26:38.414Z,4.70
2023-05-16T16:29:06.750Z,4.90
2023-05-16T16:31:35.228Z,5.00
2023-05-16T16:34:03.520Z,1.95
2023-05-16T16:36:33.629Z,5.70
2023-05-16T16:39:01.554Z,4.75
2023-05-16T16:41:29.633Z,2.47
2023-05-16T16:43:57.659Z,6.25
2023-05-16T16:46:25.722Z,3.60
2023-05-16T16:48:54.812Z,3.70
2023-05-16T16:51:23.497Z,4.28
2023-05-16T16:53:53.061Z,3.30
2023-05-16T16:56:21.847Z,4.13
2023-05-16T16:58:50.041Z,5.90
2023-05-16T17:01:21.303Z,3.22
2023-05-16T17:03:49.811Z,3.63
2023-05-16T17:06:17.820Z,2.75
2023-05-16T17:08:46.505Z,8.38
2023-05-16T17:11:22.598Z,8.07
2023-05-16T17:13:51.480Z,3.53
2023-05-16T17:16:19.462Z,4.85
2023-05-16T17:18:47.504Z,11.45
2023-05-16T17:21:16.300Z,4.57
2023-05-16T17:23:44.401Z,6.10
2023-05-16T17:26:13.623Z,3.08
2023-05-16T17:28:47.165Z,7.43
2023-05-16T17:31:15.977Z,8.65
2023-05-16T17:33:44.640Z,4.50
2023-05-16T17:36:12.683Z,8.13
2023-05-16T17:38:41.349Z,6.22
2023-05-16T17:41:09.311Z,7.53
2023-05-16T17:43:37.302Z,5.40
2023-05-16T17:46:07.583Z,8.52
2023-05-16T17:48:35.622Z,5.28
2023-05-16T17:51:03.702Z,5.65
2023-05-16T17:53:31.637Z,7.03
2023-05-16T17:55:59.742Z,10.93
2023-05-16T17:58:28.147Z,7.60
2023-05-16T18:00:56.102Z,10.82
2023-05-16T18:03:25.729Z,6.07
2023-05-16T18:05:53.918Z,9.73
2023-05-16T18:08:21.991Z,8.13
2023-05-16T18:10:52.831Z,9.02
2023-05-16T18:13:20.837Z,5.28
2023-05-16T18:15:49.011Z,6.85
2023-05-16T18:18:21.035Z,11.35
2023-05-16T18:20:52.864Z,7.30
2023-05-16T18:23:21.550Z,6.55
2023-05-16T18:25:49.570Z,10.43
2023-05-16T18:28:21.699Z,10.20
2023-05-16T18:30:50.542Z,11.27
2023-05-16T18:33:18.538Z,9.82
2023-05-16T18:35:46.908Z,8.90
2023-05-16T18:38:28.351Z,8.30
2023-05-16T18:41:00.508Z,10.60
2023-05-16T18:43:31.565Z,11.13
2023-05-16T18:45:59.866Z,13.07
2023-05-16T18:48:30.320Z,5.93
2023-05-16T18:51:01.569Z,12.63
2023-05-16T18:53:30.954Z,15.50
2023-05-16T18:55:59.498Z,9.90
2023-05-16T18:58:27.613Z,8.50
2023-05-16T19:00:57.875Z,12.03
2023-05-16T19:03:32.922Z,10.73
2023-05-16T19:06:00.940Z,11.07
2023-05-16T19:08:44.169Z,12.03
2023-05-16T19:11:15.353Z,9.83
2023-05-16T19:13:43.292Z,12.93
2023-05-16T19:16:11.370Z,11.57
2023-05-16T19:18:39.597Z,11.93
2023-05-16T19:21:08.768Z,12.70
2023-05-16T19:23:38.164Z,10.60
2023-05-16T19:26:06.191Z,13.47
2023-05-16T19:28:34.765Z,11.23
2023-05-16T19:31:02.739Z,14.57
2023-05-16T19:33:30.798Z,13.40
2023-05-16T19:35:58.871Z,10.13
2023-05-16T19:38:27.251Z,17.27
2023-05-16T19:40:56.676Z,11.43
2023-05-16T19:43:24.857Z,11.17
2023-05-16T19:45:52.918Z,9.50
2023-05-16T19:48:21.221Z,11.27
2023-05-16T19:50:49.551Z,12.47
2023-05-16T19:53:17.729Z,8.60
2023-05-16T19:55:46.827Z,14.37
2023-05-16T19:58:16.319Z,11.07
2023-05-16T20:00:47.403Z,13.77
2023-05-16T20:03:15.621Z,9.53
2023-05-16T20:05:43.683Z,14.43
2023-05-16T20:08:12.069Z,14.17
2023-05-16T20:10:43.053Z,13.10
2023-05-16T20:13:11.085Z,10.00
2023-05-16T20:15:40.635Z,8.33
2023-05-16T20:18:08.707Z,17.43
2023-05-16T20:20:38.789Z,14.80
2023-05-16T20:23:06.938Z,9.27
2023-05-16T20:25:35.580Z,12.57
2023-05-16T20:28:03.607Z,11.73
2023-05-16T20:33:16.392Z,8.40
2023-05-16T20:35:44.551Z,13.30
2023-05-16T20:38:12.694Z,8.50
2023-05-16T20:40:40.796Z,8.97
2023-05-16T20:43:08.766Z,8.53
2023-05-16T20:45:36.813Z,15.60
2023-05-16T20:48:11.166Z,8.80
2023-05-16T20:50:40.736Z,15.23
2023-05-16T20:53:08.627Z,11.80
2023-05-16T20:55:36.527Z,12.30
2023-05-16T20:58:04.466Z,11.87
2023-05-16T21:00:33.672Z,12.67
2023-05-16T21:03:01.726Z,10.20
2023-05-16T21:05:29.831Z,15.00
2023-05-16T21:07:59.159Z,12.03
2023-05-16T21:10:27.095Z,21.47
2023-05-16T21:12:55.053Z,12.93
2023-05-16T21:15:23.644Z,11.77
2023-05-16T21:17:51.840Z,11.93
2023-05-16T21:20:20.182Z,12.67
2023-05-16T21:22:48.137Z,14.73
2023-05-16T21:25:17.462Z,10.70
2023-05-16T21:27:45.430Z,11.90
2023-05-16T21:30:14.571Z,13.13
2023-05-16T21:32:42.728Z,12.83
2023-05-16T21:35:11.026Z,10.70
2023-05-16T21:37:38.998Z,16.27
2023-05-16T21:40:09.383Z,8.07
2023-05-16T21:42:38.880Z,15.00
2023-05-16T21:45:12.519Z,12.70
2023-05-16T21:47:40.563Z,13.43
2023-05-16T21:50:09.716Z,10.40
2023-05-16T21:52:37.711Z,9.73
2023-05-16T21:55:06.467Z,14.57
2023-05-16T21:57:34.412Z,15.67
2023-05-16T22:00:06.690Z,14.13
2023-05-16T22:02:34.909Z,18.60
2023-05-16T22:05:02.942Z,11.27
2023-05-16T22:07:31.724Z,9.80
2023-05-16T22:10:00.113Z,13.97
2023-05-16T22:12:28.373Z,12.57
2023-05-16T22:14:56.353Z,7.90
2023-05-16T22:17:25.759Z,7.87
2023-05-16T22:19:54.108Z,11.00
2023-05-16T22:22:22.103Z,10.33
2023-05-16T22:24:50.051Z,12.23
2023-05-16T22:27:18.061Z,13.63
2023-05-16T22:29:46.145Z,13.60
2023-05-16T22:32:14.734Z,12.43
2023-05-16T22:34:44.406Z,10.83
2023-05-16T22:37:12.460Z,8.60
2023-05-16T22:39:43.049Z,12.17
2023-05-16T22:42:11.182Z,12.43
2023-05-16T22:44:39.164Z,17.03
2023-05-16T22:47:07.715Z,16.73
2023-05-16T22:49:35.808Z,11.77
2023-05-16T22:52:08.360Z,12.40
2023-05-16T22:54:36.362Z,10.33
2023-05-16T22:57:04.325Z,8.53
2023-05-16T22:59:32.864Z,17.70
2023-05-16T23:02:00.841Z,10.23
2023-05-16T23:04:28.862Z,13.80
2023-05-16T23:06:57.011Z,16.00
2023-05-16T23:09:26.859Z,10.87
2023-05-16T23:11:54.806Z,13.53
2023-05-16T23:14:22.766Z,13.73
2023-05-16T23:16:50.739Z,13.90
2023-05-16T23:19:18.842Z,12.23
2023-05-16T23:21:46.868Z,9.50
2023-05-16T23:24:14.815Z,12.60
2023-05-16T23:26:44.247Z,15.77
2023-05-16T23:29:12.237Z,11.47
2023-05-16T23:31:40.170Z,14.87
2023-05-16T23:34:08.204Z,13.10
2023-05-16T23:36:36.272Z,11.27
2023-05-16T23:39:04.298Z,15.90
2023-05-16T23:41:32.282Z,14.73
2023-05-16T23:44:01.676Z,11.73
2023-05-16T23:46:29.649Z,12.43
2023-05-16T23:48:57.933Z,9.97
2023-05-16T23:51:26.039Z,10.73
2023-05-16T23:53:53.982Z,15.73
2023-05-16T23:56:21.965Z,12.70
2023-05-16T23:58:59.224Z,14.67
